• Join FlightAware (Why Join?)
  • Login
  • US Flag 
12:44PM EDT


 

Airport Tracker/Info


-or-


 

Live Flight TrackerFlight Track Log ✈ UAL5863 ✈ 02-May-2013 ✈ KSBN - KORD

Flight Track Log - Related Links

Times and Time Zones

All times are in EDT time to prevent confusion due to time zone crossing. See the UAL5863 flight status page for this flight to view local times or setup timezone preferences in your user account.

Time Position Orientation Groundspeed Altitude Reporting Facility
EDT Latitude Longitude Course Direction KTS MPH feet Rate Location/Type
03:48PM 41.8025 -86.5111 312° West 251 289 8,000  Level Chicago Center
03:49PM 41.9105 -86.5525 308° West  Level FlightAware Approximate
03:49PM 41.8622 -86.5806 319° Northwest 278 320 10,000  Level Chicago Center
03:50PM 41.9567 -86.6311 308° West  Level FlightAware Approximate
03:50PM 41.9347 -86.6700 317° Northwest 347 399 10,000  Level Chicago Center
03:51PM 42.0028 -86.7097 308° West  Level FlightAware Approximate
03:51PM 42.0114 -86.7625 318° Northwest 367 422 9,900  Level Chicago Center
03:52PM 42.0561 -86.7923 312° West  Level FlightAware Approximate
03:52PM 42.0694 -86.8325 318° Northwest 306 352 8,400  Level Chicago Center
03:53PM 42.1013 -86.8601 312° West  Level FlightAware Approximate
03:53PM 42.1272 -86.9047 317° Northwest 288 331 8,000  Level Chicago Center
03:54PM 42.1608 -87.0222 291° West 295 339 8,000  Level Chicago Center
03:55PM 42.1667 -87.1283 274° West 289 333 8,000 -300 Level Chicago Center
03:56PM 42.1744 -87.2339 276° West 287 330 7,500 -540 Descending Chicago Center
03:57PM 42.1806 -87.3394 275° West 286 329 7,000 -300 Descending Chicago Center
03:58PM 42.1878 -87.4414 275° West 280 322 7,000  Level Chicago Center
03:59PM 42.1967 -87.5683 275° West 285 328 7,000  Level Chicago Center
04:00PM 42.1617 -87.6564 242° Southwest 271 312 7,000  Level Chicago Center
04:01PM 42.1117 -87.7272 226° Southwest 264 304 7,000  Level Chicago Center
04:02PM 42.0642 -87.8008 229° Southwest 267 307 7,000  Level Chicago Center
04:03PM 42.0667 -87.9167 272° West 289 333 7,000  Level Chicago TRACON
04:04PM 42.0667 -88.0167 270° West 261 300 7,000 -240 Level Chicago TRACON
04:05PM 42.0667 -88.1167 270° West 202 232 6,600 -480 Descending Chicago TRACON
04:06PM 42.0667 -88.1833 270° West 213 245 6,100 -600 Descending Chicago TRACON
04:08PM 42.0608 -88.2633 264° West 207 238 5,400 -540 Descending Chicago Center
04:09PM 42.0625 -88.3564 271° West 209 241 5,000 -660 Descending Chicago Center
04:10PM 42.0628 -88.4322 270° West 207 238 4,100 -540 Descending Chicago Center
04:11PM 42.0167 -88.4564 201° Southwest 200 230 4,000 -60 Descending Chicago Center
04:12PM 41.9828 -88.4097 134° Southeast 202 232 4,000  Level Chicago Center
04:13PM 41.9853 -88.3350 87° East 202 232 4,000  Level Chicago Center
04:14PM 41.9825 -88.2489 92° East 200 230 4,000  Level Chicago Center
04:15PM 41.9825 -88.1742 90° East 198 228 4,000 -300 Level Chicago Center
04:16PM 41.9839 -88.1061 88° East 194 223 3,500 -540 Descending Chicago Center